Time;durP1;ratioP1;P1;durP2;ratioP2;P2;SDS_P1;SDS_P2;PMS_P1;PMS_P2;Temp;Humidity;BMP_temperature;BMP_pressure;BME280_temperature;BME280_humidity;BME280_pressure;Samples;Min_cycle;Max_cycle;Signal;HPM_P1;HPM_P2
2021/06/10 10:17:24;;;;;;;;;;;;;;;;;;6253006;22;20484;-88
2021/06/10 10:19:50;;;;;;;21.63;19.52;;;;;;;;;;6220844;23;20333;-88
2021/06/10 10:22:16;;;;;;;21.40;19.40;;;;;;;;;;6220153;23;20011;-87
2021/06/10 10:24:41;;;;;;;21.88;19.65;;;;;;;;;;6220242;23;20132;-87
2021/06/10 10:27:10;;;;;;;21.65;19.52;;;;;;;;;;6220040;23;20330;-88
2021/06/10 10:32:27;;;;;;;23.40;21.10;;;;;;;;;;6246111;22;20020;-87
2021/06/10 10:34:53;;;;;;;23.77;21.52;;;;;;;;;;6219804;23;20432;-88
2021/06/10 10:37:25;;;;;;;23.50;21.10;;;;;;;;;;6219822;23;20004;-88
2021/06/10 10:39:53;;;;;;;23.38;20.98;;;;;;;;;;6218667;23;20077;-89
2021/06/10 10:45:44;;;;;;;22.65;20.50;;;;;;;;;;6247013;23;20446;-89
2021/06/10 10:48:12;;;;;;;21.35;19.20;;;;;;;;;;6218567;23;20055;-89
2021/06/10 10:50:44;;;;;;;21.33;19.33;;;;;;;;;;6245583;23;20000;-90
2021/06/10 10:53:21;;;;;;;20.70;18.80;;;;;;;;;;6218599;23;20004;-90
2021/06/10 10:55:59;;;;;;;20.27;18.35;;;;;;;;;;6218704;23;20327;-90
2021/06/10 10:58:25;;;;;;;18.52;16.55;;;;;;;;;;6245623;23;20000;-91
2021/06/10 11:00:56;;;;;;;19.92;18.10;;;;;;;;;;6218976;23;20055;-90
2021/06/10 11:03:26;;;;;;;18.67;16.83;;;;;;;;;;6217004;23;20478;-92
2021/06/10 11:05:53;;;;;;;19.35;17.55;;;;;;;;;;6218086;23;20011;-91
2021/06/10 11:08:20;;;;;;;16.33;14.82;;;;;;;;;;6218010;23;20079;-91
2021/06/10 11:10:53;;;;;;;17.48;15.77;;;;;;;;;;6217638;23;19996;-91
2021/06/10 11:13:21;;;;;;;19.00;17.30;;;;;;;;;;6217838;23;20392;-92
2021/06/10 11:15:47;;;;;;;20.05;18.05;;;;;;;;;;6244879;23;20089;-94
2021/06/10 11:18:31;;;;;;;18.58;15.65;;;;;;;;;;6219013;23;20079;-91
2021/06/10 11:21:03;;;;;;;17.52;15.93;;;;;;;;;;6218845;23;19999;-91
2021/06/10 11:23:43;;;;;;;19.05;17.25;;;;;;;;;;6245331;23;20050;-91
2021/06/10 11:26:18;;;;;;;17.70;15.98;;;;;;;;;;6218163;23;20088;-91
2021/06/10 11:29:28;;;;;;;17.42;15.82;;;;;;;;;;6218652;23;20388;-92
2021/06/10 11:32:33;;;;;;;18.00;15.50;;;;;;;;;;6224407;23;20095;-91
2021/06/10 11:35:08;;;;;;;16.80;15.02;;;;;;;;;;6090380;23;20061;-92
2021/06/10 11:37:39;;;;;;;15.25;13.65;;;;;;;;;;6119963;23;20013;-92
2021/06/10 11:40:09;;;;;;;15.15;13.52;;;;;;;;;;6097931;23;20384;-91
2021/06/10 11:42:58;;;;;;;11.75;10.55;;;;;;;;;;6122567;23;20061;-91
2021/06/10 11:45:29;;;;;;;13.02;11.73;;;;;;;;;;6084181;23;19998;-91
2021/06/10 11:47:55;;;;;;;13.85;12.45;;;;;;;;;;6122642;23;20010;-91
2021/06/10 11:50:47;;;;;;;;;;;;;;;;;;;;;
2021/06/10 11:53:35;;;;;;;14.43;13.00;;;;;;;;;;6122364;23;20571;-89
2021/06/10 11:56:02;;;;;;;14.93;12.57;;;;;;;;;;6088985;23;20045;-91
2021/06/10 11:58:30;;;;;;;15.95;14.32;;;;;;;;;;6122932;23;20006;-90
2021/06/10 12:00:56;;;;;;;17.40;15.70;;;;;;;;;;6121981;23;20101;-91
2021/06/10 12:03:22;;;;;;;14.52;12.88;;;;;;;;;;6122118;23;20432;-91
2021/06/10 12:05:50;;;;;;;14.63;13.18;;;;;;;;;;6121989;23;20005;-90
2021/06/10 12:08:27;;;;;;;14.10;12.70;;;;;;;;;;6152249;23;19999;-91
2021/06/10 12:11:03;;;;;;;15.05;13.45;;;;;;;;;;6217340;23;20342;-90
2021/06/10 12:13:33;;;;;;;15.88;14.27;;;;;;;;;;6244616;23;20438;-91
2021/06/10 12:16:01;;;;;;;14.85;13.43;;;;;;;;;;6217703;23;20008;-90
2021/06/10 12:18:27;;;;;;;21.20;15.00;;;;;;;;;;6217665;23;20011;-90
2021/06/10 12:21:02;;;;;;;13.25;12.00;;;;;;;;;;6244164;23;20434;-90
2021/06/10 12:23:34;;;;;;;15.52;12.95;;;;;;;;;;6217522;23;20053;-90
2021/06/10 12:26:10;;;;;;;14.05;12.65;;;;;;;;;;6217730;23;19992;-90
2021/06/10 12:28:54;;;;;;;14.55;13.15;;;;;;;;;;6235351;23;20426;-90
2021/06/10 12:31:32;;;;;;;20.88;11.90;;;;;;;;;;6217086;23;20020;-91
2021/06/10 12:34:04;;;;;;;11.55;10.40;;;;;;;;;;6244058;23;20000;-90
2021/06/10 12:36:35;;;;;;;9.63;8.65;;;;;;;;;;6244290;23;20004;-89
2021/06/10 12:39:03;;;;;;;11.95;8.98;;;;;;;;;;6217807;23;20422;-89
2021/06/10 12:41:34;;;;;;;12.10;10.60;;;;;;;;;;6217761;22;20326;-89
2021/06/10 12:44:20;;;;;;;12.10;10.75;;;;;;;;;;6243869;23;20000;-90
2021/06/10 12:46:54;;;;;;;10.60;9.10;;;;;;;;;;6243811;23;19993;-89
2021/06/10 12:49:38;;;;;;;10.70;9.60;;;;;;;;;;6216830;23;20000;-89
2021/06/10 12:52:21;;;;;;;12.02;10.80;;;;;;;;;;6217196;23;19996;-90
2021/06/10 12:54:49;;;;;;;13.90;11.75;;;;;;;;;;6217326;23;20007;-89
2021/06/10 12:57:27;;;;;;;17.58;11.88;;;;;;;;;;6217897;23;20341;-90
2021/06/10 13:00:13;;;;;;;13.88;12.48;;;;;;;;;;6217809;23;20065;-90
2021/06/10 13:02:39;;;;;;;13.93;11.60;;;;;;;;;;6244453;23;20023;-90
2021/06/10 13:05:12;;;;;;;13.93;11.02;;;;;;;;;;6244191;23;20004;-90
2021/06/10 13:07:44;;;;;;;10.50;9.43;;;;;;;;;;6216905;23;20307;-89
2021/06/10 13:10:15;;;;;;;11.35;10.25;;;;;;;;;;6217006;23;20031;-90
2021/06/10 13:12:40;;;;;;;10.30;8.40;;;;;;;;;;6217243;23;20007;-89
2021/06/10 13:15:15;;;;;;;9.13;8.23;;;;;;;;;;6244317;23;20008;-89
2021/06/10 13:17:51;;;;;;;9.60;8.63;;;;;;;;;;6244750;23;20000;-90
2021/06/10 13:20:49;;;;;;;12.27;9.23;;;;;;;;;;6219279;23;20004;-89
2021/06/10 13:23:27;;;;;;;9.20;7.65;;;;;;;;;;6218534;23;19996;-90
2021/06/10 13:26:19;;;;;;;10.20;7.20;;;;;;;;;;6219298;23;20000;-90
2021/06/10 13:28:57;;;;;;;8.52;7.78;;;;;;;;;;6245898;23;20000;-89
2021/06/10 13:31:30;;;;;;;13.98;9.23;;;;;;;;;;6218363;23;20404;-89
2021/06/10 13:34:01;;;;;;;8.50;7.32;;;;;;;;;;6218357;23;20278;-89
2021/06/10 13:36:29;;;;;;;7.03;6.43;;;;;;;;;;6245865;23;20000;-89
2021/06/10 13:38:55;;;;;;;11.23;7.28;;;;;;;;;;6219079;23;20004;-92
2021/06/10 13:41:23;;;;;;;7.38;6.72;;;;;;;;;;6218960;22;20003;-90
2021/06/10 13:43:48;;;;;;;9.45;7.18;;;;;;;;;;6219296;23;20007;-90
2021/06/10 13:46:15;;;;;;;7.13;6.43;;;;;;;;;;6218666;23;20499;-90
2021/06/10 13:48:42;;;;;;;8.70;7.45;;;;;;;;;;6245990;23;20006;-92
2021/06/10 13:51:16;;;;;;;8.90;7.90;;;;;;;;;;6219383;23;19996;-88
2021/06/10 13:53:44;;;;;;;9.98;6.97;;;;;;;;;;6245102;23;20019;-88
2021/06/10 13:56:14;;;;;;;7.57;6.88;;;;;;;;;;6245929;23;20011;-90
2021/06/10 13:58:40;;;;;;;7.80;7.00;;;;;;;;;;6245575;23;20070;-89
2021/06/10 14:01:06;;;;;;;8.82;7.00;;;;;;;;;;6218677;23;20708;-88
2021/06/10 14:03:32;;;;;;;6.93;6.15;;;;;;;;;;6245540;23;20004;-89
2021/06/10 14:05:58;;;;;;;9.35;7.13;;;;;;;;;;6219191;23;20019;-88
2021/06/10 14:08:24;;;;;;;9.57;5.85;;;;;;;;;;6245957;23;20430;-91
2021/06/10 14:10:53;;;;;;;7.30;6.03;;;;;;;;;;6246036;23;20000;-89
2021/06/10 14:13:19;;;;;;;6.70;5.53;;;;;;;;;;6246265;23;20016;-89
2021/06/10 14:15:46;;;;;;;6.80;6.10;;;;;;;;;;6218152;23;20008;-90
2021/06/10 14:18:13;;;;;;;6.32;5.72;;;;;;;;;;6245824;23;20079;-88
2021/06/10 14:20:39;;;;;;;9.32;5.90;;;;;;;;;;6218664;23;19996;-88
2021/06/10 14:23:07;;;;;;;6.75;6.05;;;;;;;;;;6245090;23;20323;-89
2021/06/10 14:25:33;;;;;;;7.15;5.50;;;;;;;;;;6219062;23;20536;-88
2021/06/10 14:28:01;;;;;;;6.60;5.90;;;;;;;;;;6218612;23;20456;-89
2021/06/10 14:32:58;;;;;;;6.35;5.75;;;;;;;;;;6246456;23;19999;-91
2021/06/10 14:35:24;;;;;;;6.80;6.13;;;;;;;;;;6245496;23;20011;-89
2021/06/10 14:37:50;;;;;;;6.18;5.57;;;;;;;;;;6245057;23;20499;-90
2021/06/10 14:40:16;;;;;;;6.85;5.80;;;;;;;;;;6219503;23;20004;-91
2021/06/10 14:42:43;;;;;;;6.25;4.53;;;;;;;;;;6246198;22;20000;-90
2021/06/10 14:45:29;;;;;;;8.38;4.80;;;;;;;;;;6218565;23;20004;-89
2021/06/10 14:48:01;;;;;;;7.00;4.80;;;;;;;;;;6237695;23;20004;-89
2021/06/10 14:50:27;;;;;;;7.45;4.68;;;;;;;;;;6245726;23;20003;-89
2021/06/10 14:52:58;;;;;;;7.20;4.57;;;;;;;;;;6244676;23;20004;-89
2021/06/10 14:55:27;;;;;;;7.30;4.70;;;;;;;;;;6218784;23;20031;-89
2021/06/10 14:57:55;;;;;;;7.53;4.32;;;;;;;;;;6245387;23;20421;-89
2021/06/10 15:00:20;;;;;;;6.10;4.43;;;;;;;;;;6218355;23;20027;-90
2021/06/10 15:02:46;;;;;;;7.22;4.80;;;;;;;;;;6218690;23;19996;-89
2021/06/10 15:05:12;;;;;;;7.70;4.60;;;;;;;;;;6218882;23;20007;-89
2021/06/10 15:07:38;;;;;;;8.27;5.40;;;;;;;;;;6244136;23;20046;-89
2021/06/10 15:10:05;;;;;;;7.80;5.30;;;;;;;;;;6244921;23;20073;-89
2021/06/10 15:12:33;;;;;;;6.10;5.50;;;;;;;;;;6245411;23;20058;-89
2021/06/10 15:15:00;;;;;;;7.30;6.13;;;;;;;;;;6216696;23;20004;-89
2021/06/10 15:17:25;;;;;;;7.07;5.50;;;;;;;;;;6218146;23;19996;-89
2021/06/10 15:19:50;;;;;;;6.55;4.72;;;;;;;;;;6217950;23;20011;-89
2021/06/10 15:22:16;;;;;;;8.75;5.45;;;;;;;;;;6244986;23;20004;-89
2021/06/10 15:24:42;;;;;;;7.28;5.53;;;;;;;;;;6245072;23;20123;-89
2021/06/10 15:27:08;;;;;;;7.30;5.78;;;;;;;;;;6218510;23;20461;-88
2021/06/10 15:29:34;;;;;;;6.05;5.07;;;;;;;;;;6244986;23;20000;-89
2021/06/10 15:32:00;;;;;;;5.30;4.78;;;;;;;;;;6212628;23;20039;-89
2021/06/10 15:34:26;;;;;;;5.15;4.43;;;;;;;;;;6213558;23;20035;-89
2021/06/10 15:36:52;;;;;;;10.15;4.47;;;;;;;;;;6213062;23;20442;-89
2021/06/10 15:39:18;;;;;;;6.00;4.55;;;;;;;;;;6214899;23;19996;-89
2021/06/10 15:41:43;;;;;;;9.80;4.75;;;;;;;;;;6212956;23;20023;-89
2021/06/10 15:44:09;;;;;;;4.95;4.32;;;;;;;;;;6212755;23;20079;-91
2021/06/10 15:46:34;;;;;;;6.97;4.35;;;;;;;;;;6213592;23;20067;-91
2021/06/10 15:49:00;;;;;;;4.93;4.20;;;;;;;;;;6214853;23;20445;-89
2021/06/10 15:51:30;;;;;;;5.88;4.18;;;;;;;;;;6214904;23;20015;-89
2021/06/10 15:53:56;;;;;;;4.60;3.88;;;;;;;;;;6213450;23;20027;-89
2021/06/10 15:56:21;;;;;;;3.63;3.25;;;;;;;;;;6213174;23;20004;-89
2021/06/10 15:58:47;;;;;;;3.47;3.17;;;;;;;;;;6212797;23;20026;-89
2021/06/10 16:01:13;;;;;;;6.18;3.08;;;;;;;;;;6214827;23;20063;-89
2021/06/10 16:03:38;;;;;;;3.92;3.42;;;;;;;;;;6214083;23;20075;-89
2021/06/10 16:06:18;;;;;;;3.70;3.30;;;;;;;;;;6214586;23;19997;-89
2021/06/10 16:08:44;;;;;;;4.07;3.67;;;;;;;;;;6214763;23;19996;-89
2021/06/10 16:11:10;;;;;;;3.53;3.22;;;;;;;;;;6214492;23;20011;-89
2021/06/10 16:13:36;;;;;;;4.63;3.78;;;;;;;;;;6211750;23;20005;-89
2021/06/10 16:16:06;;;;;;;4.38;3.50;;;;;;;;;;6213765;23;20004;-88
2021/06/10 16:18:31;;;;;;;4.93;3.88;;;;;;;;;;6214288;23;20008;-89
2021/06/10 16:20:57;;;;;;;4.28;3.90;;;;;;;;;;6213956;23;20001;-89
2021/06/10 16:23:22;;;;;;;6.63;4.30;;;;;;;;;;6212605;23;20031;-89
2021/06/10 16:25:54;;;;;;;4.55;4.10;;;;;;;;;;6212338;23;20001;-88
2021/06/10 16:28:20;;;;;;;5.07;4.13;;;;;;;;;;6212386;23;20083;-89
2021/06/10 16:30:49;;;;;;;5.90;4.15;;;;;;;;;;6212177;23;20070;-89
2021/06/10 16:33:16;;;;;;;5.78;3.67;;;;;;;;;;6211853;23;20004;-93
2021/06/10 16:35:44;;;;;;;5.75;3.97;;;;;;;;;;6212592;23;20015;-92
2021/06/10 16:38:10;;;;;;;5.18;4.38;;;;;;;;;;6211605;23;20083;-89
2021/06/10 16:40:36;;;;;;;4.40;3.40;;;;;;;;;;6211449;23;20012;-89
2021/06/10 16:43:03;;;;;;;4.50;3.55;;;;;;;;;;6212399;23;20004;-91
2021/06/10 16:45:29;;;;;;;5.15;3.70;;;;;;;;;;6213336;23;19999;-91
2021/06/10 16:47:54;;;;;;;6.15;4.10;;;;;;;;;;6213274;23;20445;-90
2021/06/10 16:50:20;;;;;;;5.45;3.65;;;;;;;;;;6212831;23;20083;-90
2021/06/10 16:52:46;;;;;;;4.97;3.88;;;;;;;;;;6214079;23;20001;-89
2021/06/10 16:55:16;;;;;;;3.92;3.47;;;;;;;;;;6213106;23;20098;-90
2021/06/10 16:57:42;;;;;;;7.93;3.80;;;;;;;;;;6214183;23;20017;-90
2021/06/10 17:05:43;;;;;;;4.15;3.33;;;;;;;;;;6183735;23;20084;-90
2021/06/10 17:08:09;;;;;;;4.80;3.92;;;;;;;;;;6158656;23;20032;-89
2021/06/10 17:10:36;;;;;;;5.97;3.85;;;;;;;;;;6158629;23;20097;-89
2021/06/10 17:13:05;;;;;;;4.45;3.72;;;;;;;;;;6184149;23;20366;-90
2021/06/10 17:15:33;;;;;;;4.22;3.80;;;;;;;;;;6152638;23;20486;-90
2021/06/10 17:18:02;;;;;;;4.10;3.45;;;;;;;;;;6184296;23;20348;-90
2021/06/10 17:20:28;;;;;;;9.23;4.93;;;;;;;;;;6159116;23;20004;-88
2021/06/10 17:22:56;;;;;;;5.88;3.50;;;;;;;;;;6158926;23;20001;-89
2021/06/10 17:25:22;;;;;;;4.75;3.65;;;;;;;;;;6182297;23;20080;-88
2021/06/10 17:27:47;;;;;;;5.38;3.95;;;;;;;;;;6183360;23;20025;-87
2021/06/10 17:30:14;;;;;;;7.10;3.40;;;;;;;;;;6183066;23;20092;-87
2021/06/10 17:32:46;;;;;;;4.93;3.90;;;;;;;;;;6158054;23;20016;-87
2021/06/10 17:35:12;;;;;;;3.85;3.55;;;;;;;;;;6182380;23;20346;-87
2021/06/10 17:37:39;;;;;;;4.15;3.75;;;;;;;;;;6203881;23;20342;-87
2021/06/10 17:40:07;;;;;;;5.25;3.92;;;;;;;;;;6214753;23;19996;-87
2021/06/10 17:42:33;;;;;;;5.28;3.42;;;;;;;;;;6215493;23;20001;-88
2021/06/10 17:45:02;;;;;;;5.57;3.65;;;;;;;;;;6213143;23;20004;-88
2021/06/10 17:47:28;;;;;;;4.15;3.53;;;;;;;;;;6215069;23;20063;-88
2021/06/10 17:49:53;;;;;;;11.98;3.80;;;;;;;;;;6214498;23;20000;-88
2021/06/10 17:52:20;;;;;;;7.18;4.20;;;;;;;;;;6213892;23;20000;-88
2021/06/10 17:54:50;;;;;;;4.75;3.70;;;;;;;;;;6213761;23;20497;-88
2021/06/10 17:57:15;;;;;;;5.40;3.85;;;;;;;;;;6214127;23;20055;-88
2021/06/10 17:59:41;;;;;;;4.38;3.90;;;;;;;;;;6212829;23;20012;-88
2021/06/10 18:02:09;;;;;;;6.50;3.35;;;;;;;;;;6215200;23;20072;-87
2021/06/10 18:04:34;;;;;;;4.13;3.80;;;;;;;;;;6211771;23;20375;-87
2021/06/10 18:07:00;;;;;;;6.22;4.05;;;;;;;;;;6212282;23;20008;-88
2021/06/10 18:09:25;;;;;;;4.13;3.55;;;;;;;;;;6214584;23;20111;-87
2021/06/10 18:11:51;;;;;;;7.20;4.18;;;;;;;;;;6211600;23;20007;-88
2021/06/10 18:14:16;;;;;;;4.50;4.10;;;;;;;;;;6212583;23;20001;-88
2021/06/10 18:16:42;;;;;;;5.13;4.07;;;;;;;;;;6213328;23;20000;-87
2021/06/10 18:19:07;;;;;;;6.72;3.88;;;;;;;;;;6213622;23;20028;-88
2021/06/10 18:21:33;;;;;;;5.13;4.63;;;;;;;;;;6212976;23;20000;-88
2021/06/10 18:23:58;;;;;;;6.13;4.10;;;;;;;;;;6213387;23;20422;-89
2021/06/10 18:26:24;;;;;;;5.90;4.38;;;;;;;;;;6210711;23;20439;-88
2021/06/10 18:28:49;;;;;;;5.50;4.22;;;;;;;;;;6214805;23;20046;-89
2021/06/10 18:31:15;;;;;;;4.50;4.10;;;;;;;;;;6228997;23;20357;-89
2021/06/10 18:33:40;;;;;;;5.25;4.28;;;;;;;;;;6218066;23;20066;-89
2021/06/10 18:36:06;;;;;;;5.53;4.63;;;;;;;;;;6217693;23;20032;-88
2021/06/10 18:38:33;;;;;;;4.95;4.55;;;;;;;;;;6218633;23;20087;-90
2021/06/10 18:40:59;;;;;;;8.55;4.78;;;;;;;;;;6218914;23;20000;-89
2021/06/10 18:43:25;;;;;;;6.88;5.20;;;;;;;;;;6245284;22;19997;-91
2021/06/10 18:45:56;;;;;;;5.35;4.78;;;;;;;;;;6218180;23;20030;-89
2021/06/10 18:48:24;;;;;;;6.22;4.63;;;;;;;;;;6218809;23;20330;-89
2021/06/10 18:50:50;;;;;;;6.53;4.80;;;;;;;;;;6218508;23;19996;-89
2021/06/10 18:53:18;;;;;;;9.48;5.65;;;;;;;;;;6218526;23;20010;-89
2021/06/10 18:55:46;;;;;;;9.20;6.70;;;;;;;;;;6219452;23;20000;-88
2021/06/10 18:58:11;;;;;;;8.95;6.15;;;;;;;;;;6218502;23;20007;-89
2021/06/10 19:00:37;;;;;;;6.97;5.97;;;;;;;;;;6218553;23;20346;-88
2021/06/10 19:03:03;;;;;;;8.30;5.78;;;;;;;;;;6218763;23;20003;-90
2021/06/10 19:05:30;;;;;;;10.18;6.03;;;;;;;;;;6217388;23;20007;-89
2021/06/10 19:07:56;;;;;;;8.43;6.10;;;;;;;;;;6216680;23;20000;-89
2021/06/10 19:10:21;;;;;;;9.18;6.00;;;;;;;;;;6217204;23;20066;-89
2021/06/10 19:12:47;;;;;;;7.22;6.45;;;;;;;;;;6218070;23;20389;-90
2021/06/10 19:15:13;;;;;;;6.28;5.68;;;;;;;;;;6243550;23;20335;-90
2021/06/10 19:17:41;;;;;;;7.38;5.85;;;;;;;;;;6217684;23;20378;-90
2021/06/10 19:20:09;;;;;;;11.65;6.45;;;;;;;;;;6217118;23;20018;-89
2021/06/10 19:22:55;;;;;;;5.78;5.22;;;;;;;;;;6217027;23;20429;-89
2021/06/10 19:28:05;;;;;;;12.43;6.20;;;;;;;;;;6243687;23;20105;-93
2021/06/10 19:30:31;;;;;;;6.80;6.10;;;;;;;;;;6244063;23;20024;-94
2021/06/10 19:32:57;;;;;;;7.07;5.75;;;;;;;;;;6217415;23;20334;-92
2021/06/10 19:35:25;;;;;;;7.40;5.63;;;;;;;;;;6243479;23;20054;-93
2021/06/10 19:37:53;;;;;;;7.00;6.20;;;;;;;;;;6217777;23;20007;-92
2021/06/10 19:40:21;;;;;;;8.20;6.80;;;;;;;;;;6217952;23;20341;-93
2021/06/10 19:42:47;;;;;;;7.85;6.30;;;;;;;;;;6218660;23;19996;-94
2021/06/10 19:45:13;;;;;;;6.30;5.70;;;;;;;;;;6218529;23;20008;-93
2021/06/10 19:47:39;;;;;;;9.57;6.60;;;;;;;;;;6216511;23;20000;-92
2021/06/10 19:50:10;;;;;;;16.05;6.35;;;;;;;;;;6217890;23;20438;-94
2021/06/10 19:52:35;;;;;;;7.70;6.55;;;;;;;;;;6217919;23;20004;-94
2021/06/10 19:55:01;;;;;;;8.18;6.03;;;;;;;;;;6217842;23;20341;-94
2021/06/10 19:57:26;;;;;;;20.80;6.60;;;;;;;;;;6218614;23;20058;-94
2021/06/10 19:59:52;;;;;;;8.80;7.03;;;;;;;;;;6245447;23;20054;-93
2021/06/10 20:02:41;;;;;;;15.25;9.77;;;;;;;;;;6218750;23;20057;-94
2021/06/10 20:05:08;;;;;;;13.65;10.18;;;;;;;;;;6245824;23;20303;-94
2021/06/10 20:07:33;;;;;;;10.07;7.07;;;;;;;;;;6219179;23;20049;-94
2021/06/10 20:09:59;;;;;;;9.70;6.93;;;;;;;;;;6245228;23;20393;-91
2021/06/10 20:12:24;;;;;;;8.77;7.05;;;;;;;;;;6243783;23;20499;-93
2021/06/10 20:14:50;;;;;;;9.75;7.07;;;;;;;;;;6218006;23;20010;-94
2021/06/10 20:17:16;;;;;;;7.53;6.60;;;;;;;;;;6218346;23;20003;-94
2021/06/10 20:19:41;;;;;;;7.65;6.93;;;;;;;;;;6218447;23;20004;-93
2021/06/10 20:22:08;;;;;;;10.57;7.38;;;;;;;;;;6218719;23;20027;-93
2021/06/10 20:24:34;;;;;;;7.50;6.80;;;;;;;;;;6245704;23;20075;-90
2021/06/10 20:30:24;;;;;;;8.23;7.25;;;;;;;;;;6217380;23;20008;-90
2021/06/10 20:32:39;;;;;;;8.00;7.25;;;;;;;;;;6243107;23;20069;-90
2021/06/10 20:35:18;;;;;;;9.82;7.47;;;;;;;;;;6243735;23;20370;-89
2021/06/10 20:38:04;;;;;;;8.73;6.82;;;;;;;;;;6244032;23;20438;-88
2021/06/10 20:40:30;;;;;;;7.50;6.80;;;;;;;;;;6243876;23;20035;-88
2021/06/10 20:42:56;;;;;;;12.88;7.07;;;;;;;;;;6244081;22;19996;-89
2021/06/10 20:45:24;;;;;;;12.00;6.85;;;;;;;;;;6217668;23;20019;-91
2021/06/10 20:47:52;;;;;;;7.68;6.85;;;;;;;;;;6243921;23;20067;-89
2021/06/10 20:50:24;;;;;;;9.30;7.20;;;;;;;;;;6217575;23;20015;-90
2021/06/10 20:52:49;;;;;;;7.57;6.90;;;;;;;;;;6244029;23;20026;-90
2021/06/10 20:55:15;;;;;;;9.30;7.13;;;;;;;;;;6245118;23;20457;-90
2021/06/10 20:57:40;;;;;;;8.57;6.90;;;;;;;;;;6217615;23;20556;-90
2021/06/10 21:00:11;;;;;;;7.78;6.32;;;;;;;;;;6243946;23;20023;-90
2021/06/10 21:02:37;;;;;;;10.45;6.93;;;;;;;;;;6244941;23;20022;-90
2021/06/10 21:05:04;;;;;;;8.00;7.20;;;;;;;;;;6217439;23;20015;-89
2021/06/10 21:07:30;;;;;;;9.88;7.65;;;;;;;;;;6244212;23;20019;-89
2021/06/10 21:09:57;;;;;;;15.18;7.30;;;;;;;;;;6217076;23;20000;-89
2021/06/10 21:12:22;;;;;;;10.90;7.10;;;;;;;;;;6217548;23;20077;-90
2021/06/10 21:14:49;;;;;;;11.38;7.43;;;;;;;;;;6244330;23;20479;-89
2021/06/10 21:17:16;;;;;;;9.60;7.00;;;;;;;;;;6217248;23;19996;-90
2021/06/10 21:19:42;;;;;;;16.13;7.55;;;;;;;;;;6215976;23;20018;-91
2021/06/10 21:22:08;;;;;;;8.15;6.75;;;;;;;;;;6215351;23;20036;-90
2021/06/10 21:24:33;;;;;;;9.05;6.90;;;;;;;;;;6217083;23;20007;-90
2021/06/10 21:26:59;;;;;;;10.90;7.10;;;;;;;;;;6217436;23;20004;-90
2021/06/10 21:29:25;;;;;;;12.38;7.22;;;;;;;;;;6217532;23;20018;-90
2021/06/10 21:31:52;;;;;;;8.60;6.80;;;;;;;;;;6217870;23;20450;-90
2021/06/10 21:34:18;;;;;;;9.05;7.35;;;;;;;;;;6218181;23;20106;-91
2021/06/10 21:36:43;;;;;;;8.52;6.65;;;;;;;;;;6218300;23;20031;-91
2021/06/10 21:39:09;;;;;;;7.45;6.68;;;;;;;;;;6219249;23;20055;-90
2021/06/10 21:41:35;;;;;;;11.18;6.72;;;;;;;;;;6219831;23;20441;-89
2021/06/10 21:44:01;;;;;;;10.40;6.85;;;;;;;;;;6219992;23;19996;-89
2021/06/10 21:46:28;;;;;;;8.10;7.28;;;;;;;;;;6219917;23;20005;-89
2021/06/10 21:48:53;;;;;;;8.90;7.15;;;;;;;;;;6219660;23;20004;-90
2021/06/10 21:51:19;;;;;;;8.68;7.40;;;;;;;;;;6247221;23;20003;-89
2021/06/10 21:53:44;;;;;;;10.05;7.30;;;;;;;;;;6220229;23;20007;-89
2021/06/10 21:56:10;;;;;;;8.18;6.90;;;;;;;;;;6220414;23;19996;-90
2021/06/10 21:58:37;;;;;;;8.23;7.45;;;;;;;;;;6220303;23;20000;-88
2021/06/10 22:01:03;;;;;;;8.25;7.50;;;;;;;;;;6220670;23;20334;-87
2021/06/10 22:03:28;;;;;;;8.15;7.35;;;;;;;;;;6221264;23;20027;-88
2021/06/10 22:05:55;;;;;;;9.82;7.22;;;;;;;;;;6221819;23;20377;-88
2021/06/10 22:08:21;;;;;;;9.90;7.50;;;;;;;;;;6221909;23;20418;-87
2021/06/10 22:10:46;;;;;;;8.15;7.35;;;;;;;;;;6226164;23;20000;-86
